sensor_id;sensor_type;location;lat;lon;timestamp;P1;durP1;ratioP1;P2;durP2;ratioP2
55069;SDS011;40967;52.070;8.596;2023-05-16T00:01:55;7.10;;;4.60;;
55069;SDS011;40967;52.070;8.596;2023-05-16T00:04:20;6.60;;;4.25;;
55069;SDS011;40967;52.070;8.596;2023-05-16T00:06:46;5.27;;;2.83;;
55069;SDS011;40967;52.070;8.596;2023-05-16T00:09:12;5.20;;;3.38;;
55069;SDS011;40967;52.070;8.596;2023-05-16T00:11:37;5.37;;;3.40;;
55069;SDS011;40967;52.070;8.596;2023-05-16T00:14:03;4.40;;;2.83;;
55069;SDS011;40967;52.070;8.596;2023-05-16T00:16:29;6.22;;;4.10;;
55069;SDS011;40967;52.070;8.596;2023-05-16T00:18:55;6.63;;;4.13;;
55069;SDS011;40967;52.070;8.596;2023-05-16T00:21:24;6.13;;;3.80;;
55069;SDS011;40967;52.070;8.596;2023-05-16T00:23:50;7.95;;;4.30;;
55069;SDS011;40967;52.070;8.596;2023-05-16T00:26:16;5.43;;;3.47;;
55069;SDS011;40967;52.070;8.596;2023-05-16T00:28:42;5.13;;;3.00;;
55069;SDS011;40967;52.070;8.596;2023-05-16T00:31:08;5.47;;;3.15;;
55069;SDS011;40967;52.070;8.596;2023-05-16T00:33:33;5.50;;;3.30;;
55069;SDS011;40967;52.070;8.596;2023-05-16T00:35:59;6.87;;;4.10;;
55069;SDS011;40967;52.070;8.596;2023-05-16T00:38:24;5.65;;;3.25;;
55069;SDS011;40967;52.070;8.596;2023-05-16T00:40:50;5.25;;;3.45;;
55069;SDS011;40967;52.070;8.596;2023-05-16T00:43:16;5.57;;;3.35;;
55069;SDS011;40967;52.070;8.596;2023-05-16T00:45:41;5.63;;;3.33;;
55069;SDS011;40967;52.070;8.596;2023-05-16T00:48:07;6.60;;;3.60;;
55069;SDS011;40967;52.070;8.596;2023-05-16T00:50:33;4.85;;;2.78;;
55069;SDS011;40967;52.070;8.596;2023-05-16T00:53:00;4.57;;;2.57;;
55069;SDS011;40967;52.070;8.596;2023-05-16T00:55:26;3.78;;;2.13;;
55069;SDS011;40967;52.070;8.596;2023-05-16T00:57:55;3.27;;;1.70;;
55069;SDS011;40967;52.070;8.596;2023-05-16T01:00:22;3.33;;;1.85;;
55069;SDS011;40967;52.070;8.596;2023-05-16T01:02:47;3.93;;;2.00;;
55069;SDS011;40967;52.070;8.596;2023-05-16T01:05:16;4.80;;;2.03;;
55069;SDS011;40967;52.070;8.596;2023-05-16T01:07:41;3.70;;;1.80;;
55069;SDS011;40967;52.070;8.596;2023-05-16T01:10:07;4.43;;;2.47;;
55069;SDS011;40967;52.070;8.596;2023-05-16T01:12:37;4.45;;;1.98;;
55069;SDS011;40967;52.070;8.596;2023-05-16T01:15:21;2.58;;;1.55;;
55069;SDS011;40967;52.070;8.596;2023-05-16T01:20:48;2.53;;;1.30;;
55069;SDS011;40967;52.070;8.596;2023-05-16T01:26:38;1.95;;;1.00;;
55069;SDS011;40967;52.070;8.596;2023-05-16T01:29:05;1.98;;;1.00;;
55069;SDS011;40967;52.070;8.596;2023-05-16T01:31:32;2.00;;;1.00;;
55069;SDS011;40967;52.070;8.596;2023-05-16T01:33:57;1.67;;;0.90;;
55069;SDS011;40967;52.070;8.596;2023-05-16T01:36:24;2.13;;;1.05;;
55069;SDS011;40967;52.070;8.596;2023-05-16T01:42:13;1.40;;;0.75;;
55069;SDS011;40967;52.070;8.596;2023-05-16T01:44:49;1.55;;;0.80;;
55069;SDS011;40967;52.070;8.596;2023-05-16T01:47:23;2.30;;;1.03;;
55069;SDS011;40967;52.070;8.596;2023-05-16T01:55:05;2.60;;;1.42;;
55069;SDS011;40967;52.070;8.596;2023-05-16T01:57:36;3.72;;;1.33;;
55069;SDS011;40967;52.070;8.596;2023-05-16T02:00:03;2.80;;;1.20;;
55069;SDS011;40967;52.070;8.596;2023-05-16T02:02:29;3.88;;;1.40;;
55069;SDS011;40967;52.070;8.596;2023-05-16T02:04:55;4.38;;;1.38;;
55069;SDS011;40967;52.070;8.596;2023-05-16T02:07:21;3.73;;;1.30;;
55069;SDS011;40967;52.070;8.596;2023-05-16T02:09:46;1.88;;;1.10;;
55069;SDS011;40967;52.070;8.596;2023-05-16T02:12:12;2.07;;;1.07;;
55069;SDS011;40967;52.070;8.596;2023-05-16T02:14:37;2.43;;;0.90;;
55069;SDS011;40967;52.070;8.596;2023-05-16T02:17:02;2.43;;;1.00;;
55069;SDS011;40967;52.070;8.596;2023-05-16T02:19:28;2.67;;;0.87;;
55069;SDS011;40967;52.070;8.596;2023-05-16T02:21:53;2.63;;;0.80;;
55069;SDS011;40967;52.070;8.596;2023-05-16T02:24:19;3.72;;;0.95;;
55069;SDS011;40967;52.070;8.596;2023-05-16T02:26:44;1.90;;;0.80;;
55069;SDS011;40967;52.070;8.596;2023-05-16T02:29:09;2.53;;;0.80;;
55069;SDS011;40967;52.070;8.596;2023-05-16T02:31:35;1.52;;;0.70;;
55069;SDS011;40967;52.070;8.596;2023-05-16T02:34:01;1.60;;;0.75;;
55069;SDS011;40967;52.070;8.596;2023-05-16T02:36:26;2.10;;;0.90;;
55069;SDS011;40967;52.070;8.596;2023-05-16T02:38:52;2.78;;;1.25;;
55069;SDS011;40967;52.070;8.596;2023-05-16T02:41:18;2.13;;;0.90;;
55069;SDS011;40967;52.070;8.596;2023-05-16T02:43:46;2.42;;;0.98;;
55069;SDS011;40967;52.070;8.596;2023-05-16T02:46:19;1.60;;;0.70;;
55069;SDS011;40967;52.070;8.596;2023-05-16T02:48:49;3.60;;;1.13;;
55069;SDS011;40967;52.070;8.596;2023-05-16T02:51:15;2.35;;;1.10;;
55069;SDS011;40967;52.070;8.596;2023-05-16T02:53:40;3.03;;;1.10;;
55069;SDS011;40967;52.070;8.596;2023-05-16T02:56:06;2.20;;;0.90;;
55069;SDS011;40967;52.070;8.596;2023-05-16T02:58:31;4.32;;;1.25;;
55069;SDS011;40967;52.070;8.596;2023-05-16T03:00:57;3.60;;;1.20;;
55069;SDS011;40967;52.070;8.596;2023-05-16T03:03:22;3.37;;;0.97;;
55069;SDS011;40967;52.070;8.596;2023-05-16T03:05:48;3.20;;;0.95;;
55069;SDS011;40967;52.070;8.596;2023-05-16T03:08:14;2.93;;;1.10;;
55069;SDS011;40967;52.070;8.596;2023-05-16T03:10:39;2.00;;;0.70;;
55069;SDS011;40967;52.070;8.596;2023-05-16T03:13:04;2.30;;;0.90;;
55069;SDS011;40967;52.070;8.596;2023-05-16T03:15:30;2.30;;;0.80;;
55069;SDS011;40967;52.070;8.596;2023-05-16T03:17:58;2.13;;;0.70;;
55069;SDS011;40967;52.070;8.596;2023-05-16T03:20:24;3.67;;;0.88;;
55069;SDS011;40967;52.070;8.596;2023-05-16T03:22:50;3.67;;;1.17;;
55069;SDS011;40967;52.070;8.596;2023-05-16T03:25:18;2.90;;;0.80;;
55069;SDS011;40967;52.070;8.596;2023-05-16T03:27:44;3.53;;;1.00;;
55069;SDS011;40967;52.070;8.596;2023-05-16T03:30:10;4.85;;;1.23;;
55069;SDS011;40967;52.070;8.596;2023-05-16T03:32:36;6.00;;;1.42;;
55069;SDS011;40967;52.070;8.596;2023-05-16T03:35:02;4.60;;;1.37;;
55069;SDS011;40967;52.070;8.596;2023-05-16T03:37:28;5.47;;;1.52;;
55069;SDS011;40967;52.070;8.596;2023-05-16T03:39:53;4.03;;;1.20;;
55069;SDS011;40967;52.070;8.596;2023-05-16T03:42:19;8.98;;;1.55;;
55069;SDS011;40967;52.070;8.596;2023-05-16T03:44:44;5.47;;;1.30;;
55069;SDS011;40967;52.070;8.596;2023-05-16T03:47:10;4.30;;;1.23;;
55069;SDS011;40967;52.070;8.596;2023-05-16T03:49:38;4.83;;;1.50;;
55069;SDS011;40967;52.070;8.596;2023-05-16T03:52:04;3.83;;;1.30;;
55069;SDS011;40967;52.070;8.596;2023-05-16T03:54:29;2.27;;;0.80;;
55069;SDS011;40967;52.070;8.596;2023-05-16T03:56:55;5.05;;;1.20;;
55069;SDS011;40967;52.070;8.596;2023-05-16T03:59:20;3.10;;;0.70;;
55069;SDS011;40967;52.070;8.596;2023-05-16T04:01:46;2.80;;;0.70;;
55069;SDS011;40967;52.070;8.596;2023-05-16T04:04:12;3.45;;;0.85;;
55069;SDS011;40967;52.070;8.596;2023-05-16T04:06:38;3.22;;;0.90;;
55069;SDS011;40967;52.070;8.596;2023-05-16T04:09:03;9.23;;;2.17;;
55069;SDS011;40967;52.070;8.596;2023-05-16T04:11:33;6.90;;;1.50;;
55069;SDS011;40967;52.070;8.596;2023-05-16T04:13:59;5.35;;;1.30;;
55069;SDS011;40967;52.070;8.596;2023-05-16T04:16:25;10.93;;;1.85;;
55069;SDS011;40967;52.070;8.596;2023-05-16T04:18:51;9.90;;;1.95;;
55069;SDS011;40967;52.070;8.596;2023-05-16T04:21:16;7.23;;;1.70;;
55069;SDS011;40967;52.070;8.596;2023-05-16T04:23:42;7.75;;;1.90;;
55069;SDS011;40967;52.070;8.596;2023-05-16T04:26:07;7.40;;;1.33;;
55069;SDS011;40967;52.070;8.596;2023-05-16T04:28:33;6.03;;;1.60;;
55069;SDS011;40967;52.070;8.596;2023-05-16T04:30:58;6.10;;;1.40;;
55069;SDS011;40967;52.070;8.596;2023-05-16T04:33:24;7.13;;;1.70;;
55069;SDS011;40967;52.070;8.596;2023-05-16T04:35:50;7.30;;;1.50;;
55069;SDS011;40967;52.070;8.596;2023-05-16T04:38:17;8.52;;;1.60;;
55069;SDS011;40967;52.070;8.596;2023-05-16T04:40:43;7.03;;;1.33;;
55069;SDS011;40967;52.070;8.596;2023-05-16T04:43:08;9.68;;;1.70;;
55069;SDS011;40967;52.070;8.596;2023-05-16T04:45:39;4.88;;;1.42;;
55069;SDS011;40967;52.070;8.596;2023-05-16T04:48:07;5.53;;;1.35;;
55069;SDS011;40967;52.070;8.596;2023-05-16T04:50:32;4.53;;;1.10;;
55069;SDS011;40967;52.070;8.596;2023-05-16T04:52:58;5.67;;;1.17;;
55069;SDS011;40967;52.070;8.596;2023-05-16T04:55:23;8.23;;;1.40;;
55069;SDS011;40967;52.070;8.596;2023-05-16T04:57:49;6.38;;;1.55;;
55069;SDS011;40967;52.070;8.596;2023-05-16T05:00:14;5.13;;;1.40;;
55069;SDS011;40967;52.070;8.596;2023-05-16T05:02:41;7.93;;;1.40;;
55069;SDS011;40967;52.070;8.596;2023-05-16T05:05:07;4.68;;;1.02;;
55069;SDS011;40967;52.070;8.596;2023-05-16T05:07:33;6.23;;;1.10;;
55069;SDS011;40967;52.070;8.596;2023-05-16T05:09:58;6.07;;;1.25;;
55069;SDS011;40967;52.070;8.596;2023-05-16T05:12:24;6.78;;;1.15;;
55069;SDS011;40967;52.070;8.596;2023-05-16T05:14:54;8.68;;;1.40;;
55069;SDS011;40967;52.070;8.596;2023-05-16T05:17:23;8.77;;;1.80;;
55069;SDS011;40967;52.070;8.596;2023-05-16T05:19:48;5.30;;;1.15;;
55069;SDS011;40967;52.070;8.596;2023-05-16T05:22:17;6.47;;;1.33;;
55069;SDS011;40967;52.070;8.596;2023-05-16T05:24:42;2.45;;;0.93;;
55069;SDS011;40967;52.070;8.596;2023-05-16T05:27:07;3.57;;;0.80;;
55069;SDS011;40967;52.070;8.596;2023-05-16T05:29:33;4.28;;;1.13;;
55069;SDS011;40967;52.070;8.596;2023-05-16T05:31:59;3.78;;;0.85;;
55069;SDS011;40967;52.070;8.596;2023-05-16T05:34:25;3.83;;;0.63;;
55069;SDS011;40967;52.070;8.596;2023-05-16T05:36:50;7.40;;;1.40;;
55069;SDS011;40967;52.070;8.596;2023-05-16T05:39:16;5.20;;;0.90;;
55069;SDS011;40967;52.070;8.596;2023-05-16T05:41:41;3.45;;;0.70;;
55069;SDS011;40967;52.070;8.596;2023-05-16T05:44:06;4.90;;;1.00;;
55069;SDS011;40967;52.070;8.596;2023-05-16T05:46:33;9.47;;;1.50;;
55069;SDS011;40967;52.070;8.596;2023-05-16T05:48:59;5.28;;;0.80;;
55069;SDS011;40967;52.070;8.596;2023-05-16T05:51:25;5.13;;;0.80;;
55069;SDS011;40967;52.070;8.596;2023-05-16T05:53:51;3.57;;;0.93;;
55069;SDS011;40967;52.070;8.596;2023-05-16T05:56:16;3.22;;;0.95;;
55069;SDS011;40967;52.070;8.596;2023-05-16T05:58:42;5.82;;;1.00;;
55069;SDS011;40967;52.070;8.596;2023-05-16T06:01:09;6.63;;;1.40;;
55069;SDS011;40967;52.070;8.596;2023-05-16T06:03:35;8.45;;;1.48;;
55069;SDS011;40967;52.070;8.596;2023-05-16T06:06:00;6.93;;;1.20;;
55069;SDS011;40967;52.070;8.596;2023-05-16T06:08:26;2.80;;;0.83;;
55069;SDS011;40967;52.070;8.596;2023-05-16T06:10:51;3.42;;;0.88;;
55069;SDS011;40967;52.070;8.596;2023-05-16T06:13:16;4.73;;;0.83;;
55069;SDS011;40967;52.070;8.596;2023-05-16T06:15:42;5.27;;;1.33;;
55069;SDS011;40967;52.070;8.596;2023-05-16T06:18:07;3.23;;;0.70;;
55069;SDS011;40967;52.070;8.596;2023-05-16T06:20:33;2.83;;;0.80;;
55069;SDS011;40967;52.070;8.596;2023-05-16T06:22:58;2.43;;;0.60;;
55069;SDS011;40967;52.070;8.596;2023-05-16T06:25:23;5.80;;;1.17;;
55069;SDS011;40967;52.070;8.596;2023-05-16T06:27:49;7.15;;;1.70;;
55069;SDS011;40967;52.070;8.596;2023-05-16T06:30:14;2.97;;;0.90;;
55069;SDS011;40967;52.070;8.596;2023-05-16T06:32:40;4.17;;;0.93;;
55069;SDS011;40967;52.070;8.596;2023-05-16T06:35:06;3.03;;;1.03;;
55069;SDS011;40967;52.070;8.596;2023-05-16T06:37:33;4.17;;;0.83;;
55069;SDS011;40967;52.070;8.596;2023-05-16T06:39:58;5.20;;;1.00;;
55069;SDS011;40967;52.070;8.596;2023-05-16T06:42:23;5.82;;;1.15;;
55069;SDS011;40967;52.070;8.596;2023-05-16T06:44:49;4.17;;;0.80;;
55069;SDS011;40967;52.070;8.596;2023-05-16T06:47:15;3.28;;;0.70;;
55069;SDS011;40967;52.070;8.596;2023-05-16T06:49:40;3.00;;;0.67;;
55069;SDS011;40967;52.070;8.596;2023-05-16T06:52:06;2.77;;;0.70;;
55069;SDS011;40967;52.070;8.596;2023-05-16T06:54:31;4.80;;;1.00;;
55069;SDS011;40967;52.070;8.596;2023-05-16T06:56:57;5.50;;;1.25;;
55069;SDS011;40967;52.070;8.596;2023-05-16T06:59:22;2.87;;;0.70;;
55069;SDS011;40967;52.070;8.596;2023-05-16T07:01:48;4.00;;;0.80;;
55069;SDS011;40967;52.070;8.596;2023-05-16T07:04:13;3.47;;;0.80;;
55069;SDS011;40967;52.070;8.596;2023-05-16T07:06:39;2.05;;;0.70;;
55069;SDS011;40967;52.070;8.596;2023-05-16T07:09:05;5.82;;;1.10;;
55069;SDS011;40967;52.070;8.596;2023-05-16T07:11:31;3.80;;;1.00;;
55069;SDS011;40967;52.070;8.596;2023-05-16T07:13:56;4.85;;;1.20;;
55069;SDS011;40967;52.070;8.596;2023-05-16T07:16:22;5.93;;;0.98;;
55069;SDS011;40967;52.070;8.596;2023-05-16T07:18:48;6.97;;;1.40;;
55069;SDS011;40967;52.070;8.596;2023-05-16T07:21:13;2.10;;;0.73;;
55069;SDS011;40967;52.070;8.596;2023-05-16T07:23:38;3.97;;;0.97;;
55069;SDS011;40967;52.070;8.596;2023-05-16T07:26:04;4.27;;;0.93;;
55069;SDS011;40967;52.070;8.596;2023-05-16T07:28:29;4.07;;;0.80;;
55069;SDS011;40967;52.070;8.596;2023-05-16T07:30:55;5.47;;;0.97;;
55069;SDS011;40967;52.070;8.596;2023-05-16T07:33:22;3.60;;;0.70;;
55069;SDS011;40967;52.070;8.596;2023-05-16T07:35:48;3.60;;;1.00;;
55069;SDS011;40967;52.070;8.596;2023-05-16T07:38:14;3.70;;;0.70;;
55069;SDS011;40967;52.070;8.596;2023-05-16T07:40:39;3.67;;;0.70;;
55069;SDS011;40967;52.070;8.596;2023-05-16T07:43:05;1.63;;;0.50;;
55069;SDS011;40967;52.070;8.596;2023-05-16T07:45:30;7.13;;;1.23;;
55069;SDS011;40967;52.070;8.596;2023-05-16T07:47:56;3.93;;;0.90;;
55069;SDS011;40967;52.070;8.596;2023-05-16T07:50:21;4.18;;;0.90;;
55069;SDS011;40967;52.070;8.596;2023-05-16T07:52:47;6.33;;;1.23;;
55069;SDS011;40967;52.070;8.596;2023-05-16T07:55:12;5.67;;;1.10;;
55069;SDS011;40967;52.070;8.596;2023-05-16T07:57:38;6.30;;;1.37;;
55069;SDS011;40967;52.070;8.596;2023-05-16T08:00:04;4.18;;;0.82;;
55069;SDS011;40967;52.070;8.596;2023-05-16T08:02:30;4.15;;;0.95;;
55069;SDS011;40967;52.070;8.596;2023-05-16T08:04:55;6.70;;;1.23;;
55069;SDS011;40967;52.070;8.596;2023-05-16T08:07:24;3.55;;;0.70;;
55069;SDS011;40967;52.070;8.596;2023-05-16T08:09:49;6.40;;;1.17;;
55069;SDS011;40967;52.070;8.596;2023-05-16T08:12:15;7.05;;;1.25;;
55069;SDS011;40967;52.070;8.596;2023-05-16T08:14:40;4.53;;;1.07;;
55069;SDS011;40967;52.070;8.596;2023-05-16T08:17:05;7.37;;;1.57;;
55069;SDS011;40967;52.070;8.596;2023-05-16T08:19:31;5.03;;;1.13;;
55069;SDS011;40967;52.070;8.596;2023-05-16T08:21:57;4.93;;;0.98;;
55069;SDS011;40967;52.070;8.596;2023-05-16T08:24:23;4.75;;;0.98;;
55069;SDS011;40967;52.070;8.596;2023-05-16T08:26:48;5.78;;;1.02;;
55069;SDS011;40967;52.070;8.596;2023-05-16T08:29:14;3.40;;;0.90;;
55069;SDS011;40967;52.070;8.596;2023-05-16T08:31:39;5.27;;;1.30;;
55069;SDS011;40967;52.070;8.596;2023-05-16T08:34:05;4.70;;;1.25;;
55069;SDS011;40967;52.070;8.596;2023-05-16T08:36:31;4.23;;;0.57;;
55069;SDS011;40967;52.070;8.596;2023-05-16T08:38:58;8.77;;;1.38;;
55069;SDS011;40967;52.070;8.596;2023-05-16T08:41:24;6.37;;;1.20;;
55069;SDS011;40967;52.070;8.596;2023-05-16T08:43:50;4.13;;;1.15;;
55069;SDS011;40967;52.070;8.596;2023-05-16T08:46:17;6.90;;;1.07;;
55069;SDS011;40967;52.070;8.596;2023-05-16T08:48:46;4.25;;;0.93;;
55069;SDS011;40967;52.070;8.596;2023-05-16T08:51:18;5.47;;;0.80;;
55069;SDS011;40967;52.070;8.596;2023-05-16T08:53:49;1.80;;;0.57;;
55069;SDS011;40967;52.070;8.596;2023-05-16T08:56:20;5.43;;;1.00;;
55069;SDS011;40967;52.070;8.596;2023-05-16T08:58:48;4.47;;;1.15;;
55069;SDS011;40967;52.070;8.596;2023-05-16T09:01:15;3.97;;;0.80;;
55069;SDS011;40967;52.070;8.596;2023-05-16T09:03:42;3.10;;;0.85;;
55069;SDS011;40967;52.070;8.596;2023-05-16T09:06:08;3.65;;;0.80;;
55069;SDS011;40967;52.070;8.596;2023-05-16T09:08:33;6.95;;;0.88;;
55069;SDS011;40967;52.070;8.596;2023-05-16T09:11:00;4.53;;;0.90;;
55069;SDS011;40967;52.070;8.596;2023-05-16T09:13:26;5.97;;;1.30;;
55069;SDS011;40967;52.070;8.596;2023-05-16T09:16:11;5.30;;;0.80;;
55069;SDS011;40967;52.070;8.596;2023-05-16T09:18:38;5.15;;;1.02;;
55069;SDS011;40967;52.070;8.596;2023-05-16T09:21:04;3.92;;;0.98;;
55069;SDS011;40967;52.070;8.596;2023-05-16T09:23:31;5.47;;;1.10;;
55069;SDS011;40967;52.070;8.596;2023-05-16T09:25:57;3.22;;;0.73;;
55069;SDS011;40967;52.070;8.596;2023-05-16T09:28:27;2.80;;;0.60;;
55069;SDS011;40967;52.070;8.596;2023-05-16T09:30:52;2.28;;;0.60;;
55069;SDS011;40967;52.070;8.596;2023-05-16T09:33:23;3.57;;;0.80;;
55069;SDS011;40967;52.070;8.596;2023-05-16T09:35:54;1.30;;;0.30;;
55069;SDS011;40967;52.070;8.596;2023-05-16T09:38:26;3.00;;;0.60;;
55069;SDS011;40967;52.070;8.596;2023-05-16T09:40:53;4.00;;;0.80;;
55069;SDS011;40967;52.070;8.596;2023-05-16T09:43:21;5.05;;;0.85;;
55069;SDS011;40967;52.070;8.596;2023-05-16T09:45:49;3.88;;;0.80;;
55069;SDS011;40967;52.070;8.596;2023-05-16T09:48:15;3.25;;;0.70;;
55069;SDS011;40967;52.070;8.596;2023-05-16T09:50:51;2.33;;;0.55;;
55069;SDS011;40967;52.070;8.596;2023-05-16T09:53:25;4.82;;;0.80;;
55069;SDS011;40967;52.070;8.596;2023-05-16T09:58:28;2.00;;;0.50;;
55069;SDS011;40967;52.070;8.596;2023-05-16T10:00:57;2.90;;;0.52;;
55069;SDS011;40967;52.070;8.596;2023-05-16T10:03:23;3.55;;;0.63;;
55069;SDS011;40967;52.070;8.596;2023-05-16T10:05:51;3.50;;;0.80;;
55069;SDS011;40967;52.070;8.596;2023-05-16T10:08:19;3.70;;;0.60;;
55069;SDS011;40967;52.070;8.596;2023-05-16T10:10:46;4.25;;;0.85;;
55069;SDS011;40967;52.070;8.596;2023-05-16T10:13:15;3.00;;;0.70;;
55069;SDS011;40967;52.070;8.596;2023-05-16T10:15:45;3.38;;;0.63;;
55069;SDS011;40967;52.070;8.596;2023-05-16T10:18:12;5.35;;;1.23;;
55069;SDS011;40967;52.070;8.596;2023-05-16T10:20:40;3.67;;;0.83;;
55069;SDS011;40967;52.070;8.596;2023-05-16T10:23:07;5.40;;;1.02;;
55069;SDS011;40967;52.070;8.596;2023-05-16T10:25:35;5.55;;;1.20;;
55069;SDS011;40967;52.070;8.596;2023-05-16T10:28:05;5.25;;;0.80;;
55069;SDS011;40967;52.070;8.596;2023-05-16T10:30:32;3.42;;;0.65;;
55069;SDS011;40967;52.070;8.596;2023-05-16T10:32:59;1.67;;;0.43;;
55069;SDS011;40967;52.070;8.596;2023-05-16T10:35:25;3.83;;;0.75;;
55069;SDS011;40967;52.070;8.596;2023-05-16T10:37:51;2.15;;;0.70;;
55069;SDS011;40967;52.070;8.596;2023-05-16T10:40:18;3.07;;;0.60;;
55069;SDS011;40967;52.070;8.596;2023-05-16T10:45:21;2.85;;;0.60;;
55069;SDS011;40967;52.070;8.596;2023-05-16T10:47:51;5.97;;;1.10;;
55069;SDS011;40967;52.070;8.596;2023-05-16T11:09:27;1.95;;;0.40;;
55069;SDS011;40967;52.070;8.596;2023-05-16T11:17:37;2.42;;;0.60;;
55069;SDS011;40967;52.070;8.596;2023-05-16T11:19:56;1.80;;;0.55;;
55069;SDS011;40967;52.070;8.596;2023-05-16T11:22:32;2.50;;;0.60;;
55069;SDS011;40967;52.070;8.596;2023-05-16T11:25:05;2.60;;;0.70;;
55069;SDS011;40967;52.070;8.596;2023-05-16T11:27:47;2.28;;;0.52;;
55069;SDS011;40967;52.070;8.596;2023-05-16T11:30:13;2.33;;;0.70;;
55069;SDS011;40967;52.070;8.596;2023-05-16T11:32:41;1.48;;;0.65;;
55069;SDS011;40967;52.070;8.596;2023-05-16T11:35:14;4.30;;;0.57;;
55069;SDS011;40967;52.070;8.596;2023-05-16T11:37:41;3.13;;;0.93;;
55069;SDS011;40967;52.070;8.596;2023-05-16T11:40:07;3.13;;;0.67;;
55069;SDS011;40967;52.070;8.596;2023-05-16T11:42:36;2.53;;;0.68;;
55069;SDS011;40967;52.070;8.596;2023-05-16T11:45:11;6.40;;;1.10;;
55069;SDS011;40967;52.070;8.596;2023-05-16T11:47:40;2.05;;;0.55;;
55069;SDS011;40967;52.070;8.596;2023-05-16T11:50:10;2.43;;;0.47;;
55069;SDS011;40967;52.070;8.596;2023-05-16T11:52:38;1.87;;;0.50;;
55069;SDS011;40967;52.070;8.596;2023-05-16T11:55:07;2.03;;;0.43;;
55069;SDS011;40967;52.070;8.596;2023-05-16T11:57:40;2.95;;;0.80;;
55069;SDS011;40967;52.070;8.596;2023-05-16T12:00:15;3.70;;;0.80;;
55069;SDS011;40967;52.070;8.596;2023-05-16T12:02:45;3.47;;;0.68;;
55069;SDS011;40967;52.070;8.596;2023-05-16T12:05:12;1.85;;;0.57;;
55069;SDS011;40967;52.070;8.596;2023-05-16T12:07:38;3.47;;;0.77;;
55069;SDS011;40967;52.070;8.596;2023-05-16T12:10:08;3.40;;;0.90;;
55069;SDS011;40967;52.070;8.596;2023-05-16T12:12:35;5.05;;;1.02;;
55069;SDS011;40967;52.070;8.596;2023-05-16T12:15:04;4.35;;;0.50;;
55069;SDS011;40967;52.070;8.596;2023-05-16T12:17:32;3.75;;;0.93;;
55069;SDS011;40967;52.070;8.596;2023-05-16T12:19:58;1.92;;;0.50;;
55069;SDS011;40967;52.070;8.596;2023-05-16T12:22:24;3.17;;;0.52;;
55069;SDS011;40967;52.070;8.596;2023-05-16T12:24:50;2.20;;;0.60;;
55069;SDS011;40967;52.070;8.596;2023-05-16T12:27:25;1.17;;;0.45;;
55069;SDS011;40967;52.070;8.596;2023-05-16T12:29:54;3.00;;;0.73;;
55069;SDS011;40967;52.070;8.596;2023-05-16T12:32:22;1.67;;;0.40;;
55069;SDS011;40967;52.070;8.596;2023-05-16T12:34:48;1.85;;;0.55;;
55069;SDS011;40967;52.070;8.596;2023-05-16T12:37:16;1.90;;;0.60;;
55069;SDS011;40967;52.070;8.596;2023-05-16T12:39:41;2.60;;;0.70;;
55069;SDS011;40967;52.070;8.596;2023-05-16T12:42:06;3.27;;;0.90;;
55069;SDS011;40967;52.070;8.596;2023-05-16T12:44:33;2.92;;;0.73;;
55069;SDS011;40967;52.070;8.596;2023-05-16T12:46:59;4.37;;;1.03;;
55069;SDS011;40967;52.070;8.596;2023-05-16T12:49:26;4.53;;;1.15;;
55069;SDS011;40967;52.070;8.596;2023-05-16T12:51:52;6.17;;;1.47;;
55069;SDS011;40967;52.070;8.596;2023-05-16T12:54:20;6.22;;;1.52;;
55069;SDS011;40967;52.070;8.596;2023-05-16T12:56:47;4.60;;;1.73;;
55069;SDS011;40967;52.070;8.596;2023-05-16T12:59:14;5.15;;;1.30;;
55069;SDS011;40967;52.070;8.596;2023-05-16T13:01:40;2.50;;;0.70;;
55069;SDS011;40967;52.070;8.596;2023-05-16T13:04:06;2.05;;;0.57;;
55069;SDS011;40967;52.070;8.596;2023-05-16T13:06:32;1.80;;;0.52;;
55069;SDS011;40967;52.070;8.596;2023-05-16T13:08:58;1.57;;;0.50;;
55069;SDS011;40967;52.070;8.596;2023-05-16T13:11:24;1.73;;;0.60;;
55069;SDS011;40967;52.070;8.596;2023-05-16T13:13:50;2.43;;;0.60;;
55069;SDS011;40967;52.070;8.596;2023-05-16T13:16:17;3.00;;;0.70;;
55069;SDS011;40967;52.070;8.596;2023-05-16T13:18:44;2.38;;;0.50;;
55069;SDS011;40967;52.070;8.596;2023-05-16T13:21:12;1.25;;;0.45;;
55069;SDS011;40967;52.070;8.596;2023-05-16T13:23:38;2.13;;;0.52;;
55069;SDS011;40967;52.070;8.596;2023-05-16T13:26:03;1.83;;;0.60;;
55069;SDS011;40967;52.070;8.596;2023-05-16T13:28:32;1.43;;;0.40;;
55069;SDS011;40967;52.070;8.596;2023-05-16T13:30:57;1.33;;;0.40;;
55069;SDS011;40967;52.070;8.596;2023-05-16T13:33:23;1.20;;;0.40;;
55069;SDS011;40967;52.070;8.596;2023-05-16T13:35:48;2.10;;;0.60;;
55069;SDS011;40967;52.070;8.596;2023-05-16T13:38:15;1.73;;;0.40;;
55069;SDS011;40967;52.070;8.596;2023-05-16T13:40:40;0.57;;;0.20;;
55069;SDS011;40967;52.070;8.596;2023-05-16T13:43:09;2.03;;;0.65;;
55069;SDS011;40967;52.070;8.596;2023-05-16T13:45:34;1.60;;;0.30;;
55069;SDS011;40967;52.070;8.596;2023-05-16T13:48:01;1.33;;;0.40;;
55069;SDS011;40967;52.070;8.596;2023-05-16T13:50:28;2.50;;;0.75;;
55069;SDS011;40967;52.070;8.596;2023-05-16T13:52:54;2.47;;;0.60;;
55069;SDS011;40967;52.070;8.596;2023-05-16T13:55:20;3.65;;;0.60;;
55069;SDS011;40967;52.070;8.596;2023-05-16T13:57:45;4.37;;;0.60;;
55069;SDS011;40967;52.070;8.596;2023-05-16T14:00:11;1.17;;;0.47;;
55069;SDS011;40967;52.070;8.596;2023-05-16T14:02:38;2.80;;;0.70;;
55069;SDS011;40967;52.070;8.596;2023-05-16T14:05:04;6.13;;;0.80;;
55069;SDS011;40967;52.070;8.596;2023-05-16T14:07:30;3.45;;;0.65;;
55069;SDS011;40967;52.070;8.596;2023-05-16T14:09:56;2.17;;;0.50;;
55069;SDS011;40967;52.070;8.596;2023-05-16T14:12:21;1.80;;;0.50;;
55069;SDS011;40967;52.070;8.596;2023-05-16T14:14:49;3.60;;;0.70;;
55069;SDS011;40967;52.070;8.596;2023-05-16T14:17:15;2.03;;;0.60;;
55069;SDS011;40967;52.070;8.596;2023-05-16T14:19:40;2.90;;;0.70;;
55069;SDS011;40967;52.070;8.596;2023-05-16T14:22:06;3.33;;;0.80;;
55069;SDS011;40967;52.070;8.596;2023-05-16T14:24:32;3.45;;;0.70;;
55069;SDS011;40967;52.070;8.596;2023-05-16T14:26:57;4.50;;;0.90;;
55069;SDS011;40967;52.070;8.596;2023-05-16T14:29:24;1.95;;;0.50;;
55069;SDS011;40967;52.070;8.596;2023-05-16T14:31:50;3.45;;;0.70;;
55069;SDS011;40967;52.070;8.596;2023-05-16T14:34:16;3.73;;;0.83;;
55069;SDS011;40967;52.070;8.596;2023-05-16T14:36:42;3.10;;;0.60;;
55069;SDS011;40967;52.070;8.596;2023-05-16T14:39:07;2.25;;;0.50;;
55069;SDS011;40967;52.070;8.596;2023-05-16T14:41:33;3.25;;;0.40;;
55069;SDS011;40967;52.070;8.596;2023-05-16T14:43:59;5.40;;;0.90;;
55069;SDS011;40967;52.070;8.596;2023-05-16T14:46:24;3.33;;;0.50;;
55069;SDS011;40967;52.070;8.596;2023-05-16T14:48:50;3.63;;;0.63;;
55069;SDS011;40967;52.070;8.596;2023-05-16T14:51:15;2.27;;;0.50;;
55069;SDS011;40967;52.070;8.596;2023-05-16T14:53:41;2.70;;;0.60;;
55069;SDS011;40967;52.070;8.596;2023-05-16T14:56:07;3.50;;;0.50;;
55069;SDS011;40967;52.070;8.596;2023-05-16T14:58:38;1.40;;;0.50;;
55069;SDS011;40967;52.070;8.596;2023-05-16T15:01:04;2.97;;;0.60;;
55069;SDS011;40967;52.070;8.596;2023-05-16T15:03:29;2.60;;;0.70;;
55069;SDS011;40967;52.070;8.596;2023-05-16T15:05:56;2.88;;;0.50;;
55069;SDS011;40967;52.070;8.596;2023-05-16T15:08:22;1.83;;;0.50;;
55069;SDS011;40967;52.070;8.596;2023-05-16T15:10:47;1.90;;;0.50;;
55069;SDS011;40967;52.070;8.596;2023-05-16T15:13:12;1.50;;;0.43;;
55069;SDS011;40967;52.070;8.596;2023-05-16T15:15:38;1.40;;;0.33;;
55069;SDS011;40967;52.070;8.596;2023-05-16T15:18:04;1.48;;;0.47;;
55069;SDS011;40967;52.070;8.596;2023-05-16T15:20:32;1.17;;;0.40;;
55069;SDS011;40967;52.070;8.596;2023-05-16T15:22:58;1.52;;;0.43;;
55069;SDS011;40967;52.070;8.596;2023-05-16T15:25:23;3.27;;;0.60;;
55069;SDS011;40967;52.070;8.596;2023-05-16T15:27:48;4.97;;;1.00;;
55069;SDS011;40967;52.070;8.596;2023-05-16T15:30:14;3.20;;;0.63;;